sensor_id;sensor_type;location;lat;lon;timestamp;noise_LAeq;noise_LA_min;noise_LA_max;noise_LA01;noise_LA95
67900;Laerm;54700;51.796;10.956;2024-01-30T00:01:58;31.41;27.85;46.49;;
67900;Laerm;54700;51.796;10.956;2024-01-30T00:04:25;31.25;27.67;46.21;;
67900;Laerm;54700;51.796;10.956;2024-01-30T00:06:52;33.23;27.92;48.58;;
67900;Laerm;54700;51.796;10.956;2024-01-30T00:09:19;31.38;27.81;48.37;;
67900;Laerm;54700;51.796;10.956;2024-01-30T00:11:47;39.39;28.51;54.61;;
67900;Laerm;54700;51.796;10.956;2024-01-30T00:14:14;35.54;27.60;54.48;;
67900;Laerm;54700;51.796;10.956;2024-01-30T00:16:41;31.65;27.62;44.14;;
67900;Laerm;54700;51.796;10.956;2024-01-30T00:19:08;32.33;27.85;44.32;;
67900;Laerm;54700;51.796;10.956;2024-01-30T00:21:35;32.13;27.86;47.55;;
67900;Laerm;54700;51.796;10.956;2024-01-30T00:24:02;36.66;28.70;53.24;;
67900;Laerm;54700;51.796;10.956;2024-01-30T00:26:28;41.38;28.18;70.70;;
67900;Laerm;54700;51.796;10.956;2024-01-30T00:28:57;54.33;28.75;68.85;;
67900;Laerm;54700;51.796;10.956;2024-01-30T00:31:24;31.14;28.17;40.57;;
67900;Laerm;54700;51.796;10.956;2024-01-30T00:33:51;51.23;28.39;66.82;;
67900;Laerm;54700;51.796;10.956;2024-01-30T00:36:18;31.21;28.19;41.86;;
67900;Laerm;54700;51.796;10.956;2024-01-30T00:38:46;50.22;28.16;65.10;;
67900;Laerm;54700;51.796;10.956;2024-01-30T00:41:13;31.38;28.84;38.35;;
67900;Laerm;54700;51.796;10.956;2024-01-30T00:43:40;36.89;29.90;46.64;;
67900;Laerm;54700;51.796;10.956;2024-01-30T00:46:08;30.55;28.13;38.82;;
67900;Laerm;54700;51.796;10.956;2024-01-30T00:48:35;29.84;27.90;36.44;;
67900;Laerm;54700;51.796;10.956;2024-01-30T00:51:02;30.17;27.72;35.79;;
67900;Laerm;54700;51.796;10.956;2024-01-30T00:53:29;32.74;28.75;38.82;;
67900;Laerm;54700;51.796;10.956;2024-01-30T00:55:56;53.03;29.45;67.03;;
67900;Laerm;54700;51.796;10.956;2024-01-30T00:58:23;30.17;28.10;37.93;;
67900;Laerm;54700;51.796;10.956;2024-01-30T01:00:50;30.70;28.41;40.82;;
67900;Laerm;54700;51.796;10.956;2024-01-30T01:03:18;30.78;28.82;34.99;;
67900;Laerm;54700;51.796;10.956;2024-01-30T01:05:45;30.53;28.43;35.49;;
67900;Laerm;54700;51.796;10.956;2024-01-30T01:08:14;33.29;29.78;47.09;;
67900;Laerm;54700;51.796;10.956;2024-01-30T01:10:41;32.97;29.12;44.86;;
67900;Laerm;54700;51.796;10.956;2024-01-30T01:13:08;31.97;28.84;40.51;;
67900;Laerm;54700;51.796;10.956;2024-01-30T01:15:35;33.51;29.71;46.85;;
67900;Laerm;54700;51.796;10.956;2024-01-30T01:18:03;31.20;29.16;42.87;;
67900;Laerm;54700;51.796;10.956;2024-01-30T01:20:31;31.16;28.03;42.95;;
67900;Laerm;54700;51.796;10.956;2024-01-30T01:22:58;31.29;27.94;41.85;;
67900;Laerm;54700;51.796;10.956;2024-01-30T01:25:25;50.74;28.97;68.30;;
67900;Laerm;54700;51.796;10.956;2024-01-30T01:27:52;31.40;28.76;35.20;;
67900;Laerm;54700;51.796;10.956;2024-01-30T01:30:18;48.89;29.48;65.61;;
67900;Laerm;54700;51.796;10.956;2024-01-30T01:32:48;31.49;28.75;39.02;;
67900;Laerm;54700;51.796;10.956;2024-01-30T01:35:21;32.18;29.24;37.39;;
67900;Laerm;54700;51.796;10.956;2024-01-30T01:37:49;34.74;29.14;53.76;;
67900;Laerm;54700;51.796;10.956;2024-01-30T01:40:21;51.94;29.00;69.50;;
67900;Laerm;54700;51.796;10.956;2024-01-30T01:42:49;31.93;29.07;40.09;;
67900;Laerm;54700;51.796;10.956;2024-01-30T01:45:16;29.92;27.62;34.94;;
67900;Laerm;54700;51.796;10.956;2024-01-30T01:47:43;30.46;28.12;34.32;;
67900;Laerm;54700;51.796;10.956;2024-01-30T01:50:12;52.90;28.36;69.42;;
67900;Laerm;54700;51.796;10.956;2024-01-30T01:52:40;33.42;29.15;38.07;;
67900;Laerm;54700;51.796;10.956;2024-01-30T01:55:09;32.08;28.64;39.81;;
67900;Laerm;54700;51.796;10.956;2024-01-30T01:57:36;33.59;28.82;43.82;;
67900;Laerm;54700;51.796;10.956;2024-01-30T02:00:04;33.88;28.92;48.87;;
67900;Laerm;54700;51.796;10.956;2024-01-30T02:02:34;31.25;28.12;37.03;;
67900;Laerm;54700;51.796;10.956;2024-01-30T02:05:02;34.10;28.88;48.92;;
67900;Laerm;54700;51.796;10.956;2024-01-30T02:07:29;38.71;29.98;55.20;;
67900;Laerm;54700;51.796;10.956;2024-01-30T02:09:56;50.18;30.56;66.27;;
67900;Laerm;54700;51.796;10.956;2024-01-30T02:12:24;36.17;31.27;51.61;;
67900;Laerm;54700;51.796;10.956;2024-01-30T02:14:51;32.74;28.76;45.34;;
67900;Laerm;54700;51.796;10.956;2024-01-30T02:17:19;54.06;28.92;70.49;;
67900;Laerm;54700;51.796;10.956;2024-01-30T02:19:46;36.17;30.46;44.39;;
67900;Laerm;54700;51.796;10.956;2024-01-30T02:22:15;35.51;30.16;46.03;;
67900;Laerm;54700;51.796;10.956;2024-01-30T02:24:42;36.16;30.07;50.59;;
67900;Laerm;54700;51.796;10.956;2024-01-30T02:27:08;34.50;29.16;50.91;;
67900;Laerm;54700;51.796;10.956;2024-01-30T02:29:36;33.04;29.28;43.38;;
67900;Laerm;54700;51.796;10.956;2024-01-30T02:32:03;32.33;28.69;44.20;;
67900;Laerm;54700;51.796;10.956;2024-01-30T02:34:31;33.39;28.68;44.51;;
67900;Laerm;54700;51.796;10.956;2024-01-30T02:36:58;32.86;29.14;44.47;;
67900;Laerm;54700;51.796;10.956;2024-01-30T02:39:26;30.60;28.37;37.70;;
67900;Laerm;54700;51.796;10.956;2024-01-30T02:41:53;31.46;28.28;50.35;;
67900;Laerm;54700;51.796;10.956;2024-01-30T02:44:22;32.57;29.43;46.11;;
67900;Laerm;54700;51.796;10.956;2024-01-30T02:46:49;54.04;29.62;68.27;;
67900;Laerm;54700;51.796;10.956;2024-01-30T02:49:16;40.80;30.03;62.11;;
67900;Laerm;54700;51.796;10.956;2024-01-30T02:51:43;54.68;29.93;69.83;;
67900;Laerm;54700;51.796;10.956;2024-01-30T02:54:10;34.97;30.43;47.48;;
67900;Laerm;54700;51.796;10.956;2024-01-30T02:56:38;32.58;29.18;38.30;;
67900;Laerm;54700;51.796;10.956;2024-01-30T02:59:05;32.77;29.60;40.81;;
67900;Laerm;54700;51.796;10.956;2024-01-30T03:01:32;50.38;29.86;65.95;;
67900;Laerm;54700;51.796;10.956;2024-01-30T03:03:59;53.39;32.09;68.15;;
67900;Laerm;54700;51.796;10.956;2024-01-30T03:06:25;34.53;29.89;45.17;;
67900;Laerm;54700;51.796;10.956;2024-01-30T03:08:52;33.95;30.64;39.96;;
67900;Laerm;54700;51.796;10.956;2024-01-30T03:11:19;49.31;30.41;64.83;;
67900;Laerm;54700;51.796;10.956;2024-01-30T03:13:47;55.58;29.60;67.75;;
67900;Laerm;54700;51.796;10.956;2024-01-30T03:16:14;37.18;30.44;47.97;;
67900;Laerm;54700;51.796;10.956;2024-01-30T03:18:41;55.93;32.29;69.10;;
67900;Laerm;54700;51.796;10.956;2024-01-30T03:21:08;36.37;30.75;43.03;;
67900;Laerm;54700;51.796;10.956;2024-01-30T03:23:34;52.85;30.42;68.37;;
67900;Laerm;54700;51.796;10.956;2024-01-30T03:26:01;51.60;30.68;69.83;;
67900;Laerm;54700;51.796;10.956;2024-01-30T03:28:30;35.13;30.22;46.75;;
67900;Laerm;54700;51.796;10.956;2024-01-30T03:30:58;54.96;30.42;68.75;;
67900;Laerm;54700;51.796;10.956;2024-01-30T03:33:25;55.41;31.82;68.91;;
67900;Laerm;54700;51.796;10.956;2024-01-30T03:35:53;56.58;31.08;71.63;;
67900;Laerm;54700;51.796;10.956;2024-01-30T03:38:20;49.38;31.13;65.79;;
67900;Laerm;54700;51.796;10.956;2024-01-30T03:40:47;45.93;30.06;62.15;;
67900;Laerm;54700;51.796;10.956;2024-01-30T03:43:14;37.04;30.23;56.53;;
67900;Laerm;54700;51.796;10.956;2024-01-30T03:45:41;51.46;30.13;67.16;;
67900;Laerm;54700;51.796;10.956;2024-01-30T03:48:09;31.59;29.22;47.25;;
67900;Laerm;54700;51.796;10.956;2024-01-30T03:50:36;49.82;30.39;65.62;;
67900;Laerm;54700;51.796;10.956;2024-01-30T03:53:04;52.96;30.64;67.38;;
67900;Laerm;54700;51.796;10.956;2024-01-30T03:55:30;51.38;30.88;68.53;;
67900;Laerm;54700;51.796;10.956;2024-01-30T03:57:58;33.41;30.82;38.24;;
67900;Laerm;54700;51.796;10.956;2024-01-30T04:00:24;51.04;30.73;68.03;;
67900;Laerm;54700;51.796;10.956;2024-01-30T04:02:51;33.98;30.88;48.55;;
67900;Laerm;54700;51.796;10.956;2024-01-30T04:05:19;33.35;30.91;41.93;;
67900;Laerm;54700;51.796;10.956;2024-01-30T04:07:45;55.78;31.87;68.62;;
67900;Laerm;54700;51.796;10.956;2024-01-30T04:10:12;55.65;31.86;67.56;;
67900;Laerm;54700;51.796;10.956;2024-01-30T04:12:39;58.68;32.95;70.73;;
67900;Laerm;54700;51.796;10.956;2024-01-30T04:15:06;58.21;33.77;69.22;;
67900;Laerm;54700;51.796;10.956;2024-01-30T04:17:33;57.14;32.08;70.36;;
67900;Laerm;54700;51.796;10.956;2024-01-30T04:20:00;55.26;32.72;66.78;;
67900;Laerm;54700;51.796;10.956;2024-01-30T04:22:29;55.49;32.55;68.30;;
67900;Laerm;54700;51.796;10.956;2024-01-30T04:24:56;56.89;32.75;72.49;;
67900;Laerm;54700;51.796;10.956;2024-01-30T04:27:22;59.71;32.27;72.72;;
67900;Laerm;54700;51.796;10.956;2024-01-30T04:29:49;57.01;34.76;70.10;;
67900;Laerm;54700;51.796;10.956;2024-01-30T04:32:16;58.54;32.20;70.42;;
67900;Laerm;54700;51.796;10.956;2024-01-30T04:34:43;56.28;33.10;70.33;;
67900;Laerm;54700;51.796;10.956;2024-01-30T04:37:10;58.21;36.02;69.17;;
67900;Laerm;54700;51.796;10.956;2024-01-30T04:39:38;55.55;33.19;70.22;;
67900;Laerm;54700;51.796;10.956;2024-01-30T04:42:06;60.33;34.72;72.17;;
67900;Laerm;54700;51.796;10.956;2024-01-30T04:44:33;60.74;35.86;75.45;;
67900;Laerm;54700;51.796;10.956;2024-01-30T04:47:00;61.56;36.13;73.92;;
67900;Laerm;54700;51.796;10.956;2024-01-30T04:49:27;61.89;36.54;72.57;;
67900;Laerm;54700;51.796;10.956;2024-01-30T04:51:55;58.80;34.54;73.06;;
67900;Laerm;54700;51.796;10.956;2024-01-30T04:54:22;59.31;34.63;68.03;;
67900;Laerm;54700;51.796;10.956;2024-01-30T04:56:50;59.06;37.07;73.36;;
67900;Laerm;54700;51.796;10.956;2024-01-30T04:59:17;61.40;39.15;70.58;;
67900;Laerm;54700;51.796;10.956;2024-01-30T05:01:44;58.49;35.40;69.98;;
67900;Laerm;54700;51.796;10.956;2024-01-30T05:04:11;59.91;33.94;71.15;;
67900;Laerm;54700;51.796;10.956;2024-01-30T05:06:38;56.10;34.45;67.68;;
67900;Laerm;54700;51.796;10.956;2024-01-30T05:09:05;58.63;32.92;69.50;;
67900;Laerm;54700;51.796;10.956;2024-01-30T05:11:36;58.39;34.43;72.97;;
67900;Laerm;54700;51.796;10.956;2024-01-30T05:14:05;60.92;33.67;83.27;;
67900;Laerm;54700;51.796;10.956;2024-01-30T05:16:32;61.46;35.38;74.77;;
67900;Laerm;54700;51.796;10.956;2024-01-30T05:18:59;62.34;36.87;70.02;;
67900;Laerm;54700;51.796;10.956;2024-01-30T05:21:26;61.48;39.82;70.28;;
67900;Laerm;54700;51.796;10.956;2024-01-30T05:23:53;61.26;37.98;76.84;;
67900;Laerm;54700;51.796;10.956;2024-01-30T05:26:20;62.17;36.58;71.00;;
67900;Laerm;54700;51.796;10.956;2024-01-30T05:28:48;63.37;37.66;77.14;;
67900;Laerm;54700;51.796;10.956;2024-01-30T05:31:19;57.90;36.92;70.06;;
67900;Laerm;54700;51.796;10.956;2024-01-30T05:33:46;62.05;37.58;73.79;;
67900;Laerm;54700;51.796;10.956;2024-01-30T05:36:13;59.28;36.02;71.04;;
67900;Laerm;54700;51.796;10.956;2024-01-30T05:38:40;59.79;37.36;72.04;;
67900;Laerm;54700;51.796;10.956;2024-01-30T05:41:08;61.16;37.49;72.26;;
67900;Laerm;54700;51.796;10.956;2024-01-30T05:43:35;62.30;43.91;71.66;;
67900;Laerm;54700;51.796;10.956;2024-01-30T05:46:01;63.46;46.14;76.21;;
67900;Laerm;54700;51.796;10.956;2024-01-30T05:48:30;61.74;38.51;72.09;;
67900;Laerm;54700;51.796;10.956;2024-01-30T05:50:56;61.97;40.70;73.99;;
67900;Laerm;54700;51.796;10.956;2024-01-30T05:53:25;62.46;39.81;73.51;;
67900;Laerm;54700;51.796;10.956;2024-01-30T05:55:52;61.29;39.58;75.35;;
67900;Laerm;54700;51.796;10.956;2024-01-30T05:58:19;63.56;46.57;74.37;;
67900;Laerm;54700;51.796;10.956;2024-01-30T06:00:47;64.55;52.74;78.62;;
67900;Laerm;54700;51.796;10.956;2024-01-30T06:03:14;62.00;44.11;73.97;;
67900;Laerm;54700;51.796;10.956;2024-01-30T06:05:42;61.69;43.27;75.27;;
67900;Laerm;54700;51.796;10.956;2024-01-30T06:08:09;64.35;43.36;79.16;;
67900;Laerm;54700;51.796;10.956;2024-01-30T06:10:36;61.11;39.79;71.11;;
67900;Laerm;54700;51.796;10.956;2024-01-30T06:13:03;64.64;39.86;74.96;;
67900;Laerm;54700;51.796;10.956;2024-01-30T06:15:30;61.24;39.91;72.70;;
67900;Laerm;54700;51.796;10.956;2024-01-30T06:17:58;60.47;39.87;70.12;;
67900;Laerm;54700;51.796;10.956;2024-01-30T06:20:25;61.71;41.93;74.33;;
67900;Laerm;54700;51.796;10.956;2024-01-30T06:22:53;62.76;42.18;71.11;;
67900;Laerm;54700;51.796;10.956;2024-01-30T06:25:20;61.60;40.96;71.73;;
67900;Laerm;54700;51.796;10.956;2024-01-30T06:27:47;60.87;41.09;70.16;;
67900;Laerm;54700;51.796;10.956;2024-01-30T06:30:14;62.56;45.01;69.63;;
67900;Laerm;54700;51.796;10.956;2024-01-30T06:32:42;63.94;51.79;70.35;;
67900;Laerm;54700;51.796;10.956;2024-01-30T06:35:08;64.31;50.56;72.77;;
67900;Laerm;54700;51.796;10.956;2024-01-30T06:37:36;63.91;45.40;73.27;;
67900;Laerm;54700;51.796;10.956;2024-01-30T06:40:05;60.54;42.31;69.60;;
67900;Laerm;54700;51.796;10.956;2024-01-30T06:42:32;63.49;46.12;73.59;;
67900;Laerm;54700;51.796;10.956;2024-01-30T06:44:59;63.15;51.15;72.59;;
67900;Laerm;54700;51.796;10.956;2024-01-30T06:47:26;64.32;47.71;71.44;;
67900;Laerm;54700;51.796;10.956;2024-01-30T06:49:54;64.70;53.98;76.25;;
67900;Laerm;54700;51.796;10.956;2024-01-30T06:52:22;62.74;42.48;72.86;;
67900;Laerm;54700;51.796;10.956;2024-01-30T06:54:51;63.92;53.30;75.76;;
67900;Laerm;54700;51.796;10.956;2024-01-30T06:57:20;63.02;44.67;76.07;;
67900;Laerm;54700;51.796;10.956;2024-01-30T06:59:48;63.77;48.74;72.27;;
67900;Laerm;54700;51.796;10.956;2024-01-30T07:02:15;64.49;49.27;75.84;;
67900;Laerm;54700;51.796;10.956;2024-01-30T07:04:42;62.45;48.25;75.99;;
67900;Laerm;54700;51.796;10.956;2024-01-30T07:07:09;62.49;45.59;69.11;;
67900;Laerm;54700;51.796;10.956;2024-01-30T07:09:38;62.89;42.88;71.33;;
67900;Laerm;54700;51.796;10.956;2024-01-30T07:12:06;61.59;45.95;71.70;;
67900;Laerm;54700;51.796;10.956;2024-01-30T07:14:35;60.85;44.20;70.90;;
67900;Laerm;54700;51.796;10.956;2024-01-30T07:17:02;60.32;41.47;68.70;;
67900;Laerm;54700;51.796;10.956;2024-01-30T07:19:29;62.25;40.59;71.04;;
67900;Laerm;54700;51.796;10.956;2024-01-30T07:21:56;61.10;41.46;69.03;;
67900;Laerm;54700;51.796;10.956;2024-01-30T07:24:23;60.73;43.74;69.74;;
67900;Laerm;54700;51.796;10.956;2024-01-30T07:26:51;61.00;40.48;70.77;;
67900;Laerm;54700;51.796;10.956;2024-01-30T07:29:19;61.84;42.66;74.37;;
67900;Laerm;54700;51.796;10.956;2024-01-30T07:31:52;60.97;38.99;72.57;;
67900;Laerm;54700;51.796;10.956;2024-01-30T07:34:19;62.66;40.30;75.81;;
67900;Laerm;54700;51.796;10.956;2024-01-30T07:36:46;62.31;41.42;69.58;;
67900;Laerm;54700;51.796;10.956;2024-01-30T07:39:17;59.88;38.46;71.00;;
67900;Laerm;54700;51.796;10.956;2024-01-30T07:41:47;62.55;41.90;70.56;;
67900;Laerm;54700;51.796;10.956;2024-01-30T07:44:14;65.13;40.92;73.99;;
67900;Laerm;54700;51.796;10.956;2024-01-30T07:46:43;62.32;45.27;71.05;;
67900;Laerm;54700;51.796;10.956;2024-01-30T07:49:12;61.61;40.04;71.46;;
67900;Laerm;54700;51.796;10.956;2024-01-30T07:51:41;62.81;40.92;70.58;;
67900;Laerm;54700;51.796;10.956;2024-01-30T07:54:08;63.50;48.18;73.46;;
67900;Laerm;54700;51.796;10.956;2024-01-30T07:56:36;61.15;41.56;71.65;;
67900;Laerm;54700;51.796;10.956;2024-01-30T07:59:04;63.78;47.50;72.72;;
67900;Laerm;54700;51.796;10.956;2024-01-30T08:01:33;62.47;39.30;76.33;;
67900;Laerm;54700;51.796;10.956;2024-01-30T08:04:01;62.89;44.48;73.35;;
67900;Laerm;54700;51.796;10.956;2024-01-30T08:06:29;62.79;45.26;69.68;;
67900;Laerm;54700;51.796;10.956;2024-01-30T08:08:56;62.37;47.04;71.79;;
67900;Laerm;54700;51.796;10.956;2024-01-30T08:11:25;60.40;40.98;69.75;;
67900;Laerm;54700;51.796;10.956;2024-01-30T08:13:53;63.34;43.51;71.99;;
67900;Laerm;54700;51.796;10.956;2024-01-30T08:16:20;62.34;44.12;71.29;;
67900;Laerm;54700;51.796;10.956;2024-01-30T08:18:48;63.95;40.70;71.29;;
67900;Laerm;54700;51.796;10.956;2024-01-30T08:21:16;61.57;48.27;68.87;;
67900;Laerm;54700;51.796;10.956;2024-01-30T08:23:44;62.50;48.63;71.76;;
67900;Laerm;54700;51.796;10.956;2024-01-30T08:26:11;61.51;41.87;69.78;;
67900;Laerm;54700;51.796;10.956;2024-01-30T08:28:38;63.53;43.14;75.86;;
67900;Laerm;54700;51.796;10.956;2024-01-30T08:31:05;61.99;45.49;72.41;;
67900;Laerm;54700;51.796;10.956;2024-01-30T08:33:32;64.61;53.06;76.13;;
67900;Laerm;54700;51.796;10.956;2024-01-30T08:36:00;61.79;46.61;70.16;;
67900;Laerm;54700;51.796;10.956;2024-01-30T08:38:34;63.45;49.25;71.44;;
67900;Laerm;54700;51.796;10.956;2024-01-30T08:41:03;63.27;47.33;73.33;;
67900;Laerm;54700;51.796;10.956;2024-01-30T08:43:30;63.76;50.25;72.87;;
67900;Laerm;54700;51.796;10.956;2024-01-30T08:45:59;62.32;44.36;70.43;;
67900;Laerm;54700;51.796;10.956;2024-01-30T08:48:26;64.07;46.91;75.51;;
67900;Laerm;54700;51.796;10.956;2024-01-30T08:50:56;61.30;47.43;70.23;;
67900;Laerm;54700;51.796;10.956;2024-01-30T08:53:24;63.08;45.27;72.26;;
67900;Laerm;54700;51.796;10.956;2024-01-30T08:55:52;63.44;45.61;73.09;;
67900;Laerm;54700;51.796;10.956;2024-01-30T08:58:24;61.49;43.49;72.76;;
67900;Laerm;54700;51.796;10.956;2024-01-30T09:00:51;64.85;45.71;75.32;;
67900;Laerm;54700;51.796;10.956;2024-01-30T09:03:18;63.81;43.43;74.40;;
67900;Laerm;54700;51.796;10.956;2024-01-30T09:05:46;62.58;41.71;73.79;;
67900;Laerm;54700;51.796;10.956;2024-01-30T09:08:13;63.43;41.28;71.93;;
67900;Laerm;54700;51.796;10.956;2024-01-30T09:10:40;63.33;40.69;72.12;;
67900;Laerm;54700;51.796;10.956;2024-01-30T09:13:08;62.46;41.61;73.02;;
67900;Laerm;54700;51.796;10.956;2024-01-30T09:15:36;62.74;41.75;70.28;;
67900;Laerm;54700;51.796;10.956;2024-01-30T09:18:03;64.82;47.00;74.87;;
67900;Laerm;54700;51.796;10.956;2024-01-30T09:20:30;62.71;45.17;69.81;;
67900;Laerm;54700;51.796;10.956;2024-01-30T09:22:57;62.17;48.17;69.43;;
67900;Laerm;54700;51.796;10.956;2024-01-30T09:25:24;63.53;44.66;71.67;;
67900;Laerm;54700;51.796;10.956;2024-01-30T09:27:51;60.87;43.96;69.18;;
67900;Laerm;54700;51.796;10.956;2024-01-30T09:30:18;62.08;44.47;70.86;;
67900;Laerm;54700;51.796;10.956;2024-01-30T09:32:46;64.28;50.04;74.53;;
67900;Laerm;54700;51.796;10.956;2024-01-30T09:35:13;62.48;46.47;71.15;;
67900;Laerm;54700;51.796;10.956;2024-01-30T09:37:40;60.89;45.33;70.50;;
67900;Laerm;54700;51.796;10.956;2024-01-30T09:40:08;62.58;44.75;75.08;;
67900;Laerm;54700;51.796;10.956;2024-01-30T09:42:36;63.47;43.38;75.73;;
67900;Laerm;54700;51.796;10.956;2024-01-30T09:45:02;60.55;44.55;71.71;;
67900;Laerm;54700;51.796;10.956;2024-01-30T09:47:31;63.07;50.15;69.30;;
67900;Laerm;54700;51.796;10.956;2024-01-30T09:50:00;60.00;47.38;69.69;;
67900;Laerm;54700;51.796;10.956;2024-01-30T09:52:29;62.63;52.09;71.72;;
67900;Laerm;54700;51.796;10.956;2024-01-30T09:54:59;63.50;47.91;75.69;;
67900;Laerm;54700;51.796;10.956;2024-01-30T09:57:26;64.45;51.61;74.72;;
67900;Laerm;54700;51.796;10.956;2024-01-30T09:59:53;63.83;44.62;74.95;;
67900;Laerm;54700;51.796;10.956;2024-01-30T10:02:21;63.47;47.92;73.39;;
67900;Laerm;54700;51.796;10.956;2024-01-30T10:04:49;63.29;51.03;71.48;;
67900;Laerm;54700;51.796;10.956;2024-01-30T10:07:18;60.93;47.21;70.00;;
67900;Laerm;54700;51.796;10.956;2024-01-30T10:09:46;63.73;42.49;74.72;;
67900;Laerm;54700;51.796;10.956;2024-01-30T10:12:15;61.86;42.82;71.25;;
67900;Laerm;54700;51.796;10.956;2024-01-30T10:14:44;62.27;41.27;72.55;;
67900;Laerm;54700;51.796;10.956;2024-01-30T10:17:12;62.64;44.19;70.96;;
67900;Laerm;54700;51.796;10.956;2024-01-30T10:19:40;63.06;44.20;71.81;;
67900;Laerm;54700;51.796;10.956;2024-01-30T10:22:07;63.59;43.97;71.05;;
67900;Laerm;54700;51.796;10.956;2024-01-30T10:24:37;63.70;44.64;71.14;;
67900;Laerm;54700;51.796;10.956;2024-01-30T10:27:05;63.55;45.80;71.54;;
67900;Laerm;54700;51.796;10.956;2024-01-30T10:29:32;62.60;48.92;69.85;;
67900;Laerm;54700;51.796;10.956;2024-01-30T10:32:00;64.67;49.62;75.71;;
67900;Laerm;54700;51.796;10.956;2024-01-30T10:34:27;62.07;44.34;74.13;;
67900;Laerm;54700;51.796;10.956;2024-01-30T10:37:02;62.53;50.48;71.45;;
67900;Laerm;54700;51.796;10.956;2024-01-30T10:39:41;63.24;46.67;71.61;;
67900;Laerm;54700;51.796;10.956;2024-01-30T10:42:11;63.48;46.75;71.75;;
67900;Laerm;54700;51.796;10.956;2024-01-30T10:44:46;61.55;45.37;73.65;;
67900;Laerm;54700;51.796;10.956;2024-01-30T10:47:19;62.38;46.34;70.87;;
67900;Laerm;54700;51.796;10.956;2024-01-30T10:49:49;63.52;49.20;71.75;;
67900;Laerm;54700;51.796;10.956;2024-01-30T10:52:18;62.92;44.55;74.13;;
67900;Laerm;54700;51.796;10.956;2024-01-30T10:54:50;64.01;48.96;76.17;;
67900;Laerm;54700;51.796;10.956;2024-01-30T10:57:18;63.92;47.27;83.77;;
67900;Laerm;54700;51.796;10.956;2024-01-30T10:59:46;61.17;45.56;78.41;;
67900;Laerm;54700;51.796;10.956;2024-01-30T11:02:14;62.83;47.71;73.74;;
67900;Laerm;54700;51.796;10.956;2024-01-30T11:04:42;60.83;46.76;69.28;;
67900;Laerm;54700;51.796;10.956;2024-01-30T11:07:15;63.40;48.51;72.16;;
67900;Laerm;54700;51.796;10.956;2024-01-30T11:09:50;63.76;51.59;72.62;;
67900;Laerm;54700;51.796;10.956;2024-01-30T11:12:21;63.65;48.41;73.09;;
67900;Laerm;54700;51.796;10.956;2024-01-30T11:14:48;62.80;48.42;73.31;;
67900;Laerm;54700;51.796;10.956;2024-01-30T11:17:16;62.26;45.01;70.60;;
67900;Laerm;54700;51.796;10.956;2024-01-30T11:19:43;61.66;45.44;71.11;;
67900;Laerm;54700;51.796;10.956;2024-01-30T11:22:10;59.68;46.20;68.31;;
67900;Laerm;54700;51.796;10.956;2024-01-30T11:24:41;64.45;47.71;75.11;;
67900;Laerm;54700;51.796;10.956;2024-01-30T11:27:10;62.19;46.68;71.02;;
67900;Laerm;54700;51.796;10.956;2024-01-30T11:29:36;61.27;47.62;74.39;;
67900;Laerm;54700;51.796;10.956;2024-01-30T11:32:04;62.75;46.78;71.80;;
67900;Laerm;54700;51.796;10.956;2024-01-30T11:34:32;62.19;49.21;69.57;;
67900;Laerm;54700;51.796;10.956;2024-01-30T11:37:03;62.96;52.24;74.72;;
67900;Laerm;54700;51.796;10.956;2024-01-30T11:39:36;61.17;47.87;71.00;;
67900;Laerm;54700;51.796;10.956;2024-01-30T11:42:06;63.03;51.05;73.76;;
67900;Laerm;54700;51.796;10.956;2024-01-30T11:44:35;63.25;49.63;73.31;;
67900;Laerm;54700;51.796;10.956;2024-01-30T11:47:03;62.50;44.57;71.08;;
67900;Laerm;54700;51.796;10.956;2024-01-30T11:49:30;61.20;45.45;70.38;;
67900;Laerm;54700;51.796;10.956;2024-01-30T11:51:57;64.69;47.78;77.30;;
67900;Laerm;54700;51.796;10.956;2024-01-30T11:54:24;63.86;49.96;82.09;;
67900;Laerm;54700;51.796;10.956;2024-01-30T11:56:53;61.54;46.18;71.91;;
67900;Laerm;54700;51.796;10.956;2024-01-30T11:59:20;63.13;45.00;75.29;;
67900;Laerm;54700;51.796;10.956;2024-01-30T12:01:51;62.70;43.90;76.45;;
67900;Laerm;54700;51.796;10.956;2024-01-30T12:04:19;61.39;41.80;69.89;;
67900;Laerm;54700;51.796;10.956;2024-01-30T12:06:50;63.09;44.60;71.16;;
67900;Laerm;54700;51.796;10.956;2024-01-30T12:09:17;62.04;44.43;72.38;;
67900;Laerm;54700;51.796;10.956;2024-01-30T12:11:45;61.95;48.01;73.12;;
67900;Laerm;54700;51.796;10.956;2024-01-30T12:14:12;63.22;48.28;72.84;;
67900;Laerm;54700;51.796;10.956;2024-01-30T12:16:40;61.53;49.88;69.02;;
67900;Laerm;54700;51.796;10.956;2024-01-30T12:19:21;62.69;48.36;70.62;;
67900;Laerm;54700;51.796;10.956;2024-01-30T12:21:54;60.90;47.83;70.01;;
67900;Laerm;54700;51.796;10.956;2024-01-30T12:24:21;64.47;46.42;77.58;;
67900;Laerm;54700;51.796;10.956;2024-01-30T12:26:48;61.19;42.72;70.40;;
67900;Laerm;54700;51.796;10.956;2024-01-30T12:29:15;62.40;48.56;71.66;;
67900;Laerm;54700;51.796;10.956;2024-01-30T12:31:42;60.39;46.76;72.62;;
67900;Laerm;54700;51.796;10.956;2024-01-30T12:34:09;63.41;46.48;71.22;;
67900;Laerm;54700;51.796;10.956;2024-01-30T12:36:48;61.77;47.69;74.06;;
67900;Laerm;54700;51.796;10.956;2024-01-30T12:39:16;59.33;42.97;68.60;;
67900;Laerm;54700;51.796;10.956;2024-01-30T12:41:44;61.59;46.68;71.23;;
67900;Laerm;54700;51.796;10.956;2024-01-30T12:44:14;62.98;50.25;71.33;;
67900;Laerm;54700;51.796;10.956;2024-01-30T12:46:41;62.68;48.05;73.39;;
67900;Laerm;54700;51.796;10.956;2024-01-30T12:49:08;64.70;46.42;75.94;;
67900;Laerm;54700;51.796;10.956;2024-01-30T12:51:35;62.33;47.44;73.42;;
67900;Laerm;54700;51.796;10.956;2024-01-30T12:54:06;63.38;53.54;73.32;;
67900;Laerm;54700;51.796;10.956;2024-01-30T12:56:33;62.35;48.71;76.50;;
67900;Laerm;54700;51.796;10.956;2024-01-30T12:59:00;64.54;44.81;77.71;;
67900;Laerm;54700;51.796;10.956;2024-01-30T13:01:27;64.05;50.85;73.65;;
67900;Laerm;54700;51.796;10.956;2024-01-30T13:03:54;63.25;45.47;73.00;;
67900;Laerm;54700;51.796;10.956;2024-01-30T13:06:22;62.42;43.86;76.15;;
67900;Laerm;54700;51.796;10.956;2024-01-30T13:08:49;62.89;46.45;70.98;;
67900;Laerm;54700;51.796;10.956;2024-01-30T13:11:18;64.38;48.70;74.57;;
67900;Laerm;54700;51.796;10.956;2024-01-30T13:13:45;64.22;49.86;74.27;;
67900;Laerm;54700;51.796;10.956;2024-01-30T13:16:12;62.37;46.68;71.56;;
67900;Laerm;54700;51.796;10.956;2024-01-30T13:18:39;63.91;44.65;74.46;;
67900;Laerm;54700;51.796;10.956;2024-01-30T13:21:07;62.07;45.41;70.79;;
67900;Laerm;54700;51.796;10.956;2024-01-30T13:23:34;62.70;49.50;69.61;;
67900;Laerm;54700;51.796;10.956;2024-01-30T13:26:01;62.81;44.01;76.52;;
67900;Laerm;54700;51.796;10.956;2024-01-30T13:28:29;61.76;44.88;72.52;;
67900;Laerm;54700;51.796;10.956;2024-01-30T13:30:56;64.48;48.77;72.49;;
67900;Laerm;54700;51.796;10.956;2024-01-30T13:33:23;63.90;49.06;72.90;;
67900;Laerm;54700;51.796;10.956;2024-01-30T13:35:50;62.99;45.19;71.74;;